Aviation Digital Data Service (ADDS)

Output produced by METARs form (0646 UTC 23 April 2014)
found at http://aviationweather.gov/adds/metars/
 
KJST 230520Z 2306/2406 30018G25KT P6SM FEW025 BKN040 
     FM230700 30016G24KT 6SM -SHRASN OVC015 
     FM231300 31014G28KT P6SM BKN025